sensor_id;sensor_type;location;lat;lon;timestamp;pressure;altitude;pressure_sealevel;temperature
67822;BMP180;54434;50.096;20.082;2022-12-20T00:00:01;99782.00;;;-3.88
67822;BMP180;54434;50.096;20.082;2022-12-20T00:02:58;99786.40;;;-3.80
67822;BMP180;54434;50.096;20.082;2022-12-20T00:05:38;99784.00;;;-3.78
67822;BMP180;54434;50.096;20.082;2022-12-20T00:08:14;99783.60;;;-3.70
67822;BMP180;54434;50.096;20.082;2022-12-20T00:10:50;99783.80;;;-3.68
67822;BMP180;54434;50.096;20.082;2022-12-20T00:13:28;99781.60;;;-3.60
67822;BMP180;54434;50.096;20.082;2022-12-20T00:16:13;99781.00;;;-3.60
67822;BMP180;54434;50.096;20.082;2022-12-20T00:18:53;99787.20;;;-3.60
67822;BMP180;54434;50.096;20.082;2022-12-20T00:21:31;99784.80;;;-3.54
67822;BMP180;54434;50.096;20.082;2022-12-20T00:24:10;99789.60;;;-3.50
67822;BMP180;54434;50.096;20.082;2022-12-20T00:26:46;99787.00;;;-3.50
67822;BMP180;54434;50.096;20.082;2022-12-20T00:29:22;99786.80;;;-3.50
67822;BMP180;54434;50.096;20.082;2022-12-20T00:31:58;99785.00;;;-3.40
67822;BMP180;54434;50.096;20.082;2022-12-20T00:34:34;99786.40;;;-3.40
67822;BMP180;54434;50.096;20.082;2022-12-20T00:37:10;99788.00;;;-3.40
67822;BMP180;54434;50.096;20.082;2022-12-20T00:39:47;99787.40;;;-3.40
67822;BMP180;54434;50.096;20.082;2022-12-20T00:42:23;99793.40;;;-3.30
67822;BMP180;54434;50.096;20.082;2022-12-20T00:44:59;99791.40;;;-3.30
67822;BMP180;54434;50.096;20.082;2022-12-20T00:47:34;99793.60;;;-3.30
67822;BMP180;54434;50.096;20.082;2022-12-20T00:50:12;99790.60;;;-3.26
67822;BMP180;54434;50.096;20.082;2022-12-20T00:52:48;99792.60;;;-3.20
67822;BMP180;54434;50.096;20.082;2022-12-20T00:55:24;99793.00;;;-3.20
67822;BMP180;54434;50.096;20.082;2022-12-20T00:58:00;99799.00;;;-3.20
67822;BMP180;54434;50.096;20.082;2022-12-20T01:00:36;99804.80;;;-3.12
67822;BMP180;54434;50.096;20.082;2022-12-20T01:03:12;99803.20;;;-3.10
67822;BMP180;54434;50.096;20.082;2022-12-20T01:05:57;99801.80;;;-3.10
67822;BMP180;54434;50.096;20.082;2022-12-20T01:08:34;99796.80;;;-3.10
67822;BMP180;54434;50.096;20.082;2022-12-20T01:11:15;99797.80;;;-3.00
67822;BMP180;54434;50.096;20.082;2022-12-20T01:13:55;99791.40;;;-3.00
67822;BMP180;54434;50.096;20.082;2022-12-20T01:16:36;99790.80;;;-3.00
67822;BMP180;54434;50.096;20.082;2022-12-20T01:19:15;99787.60;;;-2.96
67822;BMP180;54434;50.096;20.082;2022-12-20T01:21:51;99786.20;;;-2.90
67822;BMP180;54434;50.096;20.082;2022-12-20T01:24:28;99786.40;;;-2.90
67822;BMP180;54434;50.096;20.082;2022-12-20T01:27:04;99785.80;;;-2.80
67822;BMP180;54434;50.096;20.082;2022-12-20T01:29:40;99783.80;;;-2.80
67822;BMP180;54434;50.096;20.082;2022-12-20T01:32:16;99780.40;;;-2.70
67822;BMP180;54434;50.096;20.082;2022-12-20T01:34:54;99776.00;;;-2.70
67822;BMP180;54434;50.096;20.082;2022-12-20T01:37:29;99770.40;;;-2.66
67822;BMP180;54434;50.096;20.082;2022-12-20T01:40:08;99765.20;;;-2.60
67822;BMP180;54434;50.096;20.082;2022-12-20T01:42:45;99761.80;;;-2.60
67822;BMP180;54434;50.096;20.082;2022-12-20T01:45:29;99762.40;;;-2.60
67822;BMP180;54434;50.096;20.082;2022-12-20T01:48:06;99747.40;;;-2.50
67822;BMP180;54434;50.096;20.082;2022-12-20T01:50:42;99753.40;;;-2.50
67822;BMP180;54434;50.096;20.082;2022-12-20T01:53:21;99744.80;;;-2.48
67822;BMP180;54434;50.096;20.082;2022-12-20T01:56:00;99749.60;;;-2.40
67822;BMP180;54434;50.096;20.082;2022-12-20T01:58:40;99747.40;;;-2.40
67822;BMP180;54434;50.096;20.082;2022-12-20T02:01:17;99753.20;;;-2.30
67822;BMP180;54434;50.096;20.082;2022-12-20T02:03:54;99755.00;;;-2.30
67822;BMP180;54434;50.096;20.082;2022-12-20T02:06:30;99746.60;;;-2.26
67822;BMP180;54434;50.096;20.082;2022-12-20T02:09:08;99749.40;;;-2.20
67822;BMP180;54434;50.096;20.082;2022-12-20T02:12:09;99750.00;;;-2.20
67822;BMP180;54434;50.096;20.082;2022-12-20T02:15:04;99747.00;;;-2.12
67822;BMP180;54434;50.096;20.082;2022-12-20T02:17:59;99750.20;;;-2.10
67822;BMP180;54434;50.096;20.082;2022-12-20T02:21:27;99756.40;;;-2.04
67822;BMP180;54434;50.096;20.082;2022-12-20T02:28:09;99745.60;;;-2.00
67822;BMP180;54434;50.096;20.082;2022-12-20T02:30:51;99748.20;;;-2.00
67822;BMP180;54434;50.096;20.082;2022-12-20T02:33:30;99735.40;;;-2.00
67822;BMP180;54434;50.096;20.082;2022-12-20T02:36:09;99727.80;;;-1.98
67822;BMP180;54434;50.096;20.082;2022-12-20T02:38:45;99727.20;;;-1.90
67822;BMP180;54434;50.096;20.082;2022-12-20T02:41:29;99720.20;;;-1.90
67822;BMP180;54434;50.096;20.082;2022-12-20T02:44:12;99720.20;;;-1.90
67822;BMP180;54434;50.096;20.082;2022-12-20T02:47:13;99711.60;;;-1.90
67822;BMP180;54434;50.096;20.082;2022-12-20T02:49:53;99706.00;;;-1.80
67822;BMP180;54434;50.096;20.082;2022-12-20T02:52:32;99706.40;;;-1.80
67822;BMP180;54434;50.096;20.082;2022-12-20T02:55:09;99709.00;;;-1.80
67822;BMP180;54434;50.096;20.082;2022-12-20T02:57:53;99705.00;;;-1.76
67822;BMP180;54434;50.096;20.082;2022-12-20T03:00:43;99702.60;;;-1.70
67822;BMP180;54434;50.096;20.082;2022-12-20T03:03:22;99716.60;;;-1.70
67822;BMP180;54434;50.096;20.082;2022-12-20T03:05:58;99709.80;;;-1.70
67822;BMP180;54434;50.096;20.082;2022-12-20T03:08:35;99709.00;;;-1.68
67822;BMP180;54434;50.096;20.082;2022-12-20T03:11:11;99711.60;;;-1.60
67822;BMP180;54434;50.096;20.082;2022-12-20T03:13:47;99714.00;;;-1.60
67822;BMP180;54434;50.096;20.082;2022-12-20T03:16:23;99715.80;;;-1.60
67822;BMP180;54434;50.096;20.082;2022-12-20T03:18:59;99724.20;;;-1.60
67822;BMP180;54434;50.096;20.082;2022-12-20T03:21:35;99717.20;;;-1.60
67822;BMP180;54434;50.096;20.082;2022-12-20T03:24:12;99708.60;;;-1.58
67822;BMP180;54434;50.096;20.082;2022-12-20T03:26:48;99703.40;;;-1.50
67822;BMP180;54434;50.096;20.082;2022-12-20T03:29:25;99698.80;;;-1.50
67822;BMP180;54434;50.096;20.082;2022-12-20T03:32:01;99685.60;;;-1.50
67822;BMP180;54434;50.096;20.082;2022-12-20T03:34:36;99686.60;;;-1.48
67822;BMP180;54434;50.096;20.082;2022-12-20T03:37:13;99695.20;;;-1.48
67822;BMP180;54434;50.096;20.082;2022-12-20T03:39:49;99697.80;;;-1.40
67822;BMP180;54434;50.096;20.082;2022-12-20T03:42:26;99691.60;;;-1.40
67822;BMP180;54434;50.096;20.082;2022-12-20T03:45:03;99689.00;;;-1.40
67822;BMP180;54434;50.096;20.082;2022-12-20T03:47:40;99695.80;;;-1.40
67822;BMP180;54434;50.096;20.082;2022-12-20T03:50:16;99701.40;;;-1.40
67822;BMP180;54434;50.096;20.082;2022-12-20T03:52:53;99702.40;;;-1.40
67822;BMP180;54434;50.096;20.082;2022-12-20T03:55:29;99699.80;;;-1.40
67822;BMP180;54434;50.096;20.082;2022-12-20T03:58:06;99700.80;;;-1.30
67822;BMP180;54434;50.096;20.082;2022-12-20T04:00:44;99699.60;;;-1.30
67822;BMP180;54434;50.096;20.082;2022-12-20T04:03:41;99686.40;;;-1.30
67822;BMP180;54434;50.096;20.082;2022-12-20T04:06:18;99680.60;;;-1.30
67822;BMP180;54434;50.096;20.082;2022-12-20T04:08:54;99681.00;;;-1.30
67822;BMP180;54434;50.096;20.082;2022-12-20T04:11:34;99671.20;;;-1.30
67822;BMP180;54434;50.096;20.082;2022-12-20T04:14:16;99678.00;;;-1.30
67822;BMP180;54434;50.096;20.082;2022-12-20T04:16:52;99674.60;;;-1.30
67822;BMP180;54434;50.096;20.082;2022-12-20T04:19:29;99666.00;;;-1.30
67822;BMP180;54434;50.096;20.082;2022-12-20T04:22:05;99663.00;;;-1.36
67822;BMP180;54434;50.096;20.082;2022-12-20T04:24:55;99658.20;;;-1.40
67822;BMP180;54434;50.096;20.082;2022-12-20T04:27:34;99660.00;;;-1.40
67822;BMP180;54434;50.096;20.082;2022-12-20T04:30:15;99656.80;;;-1.46
67822;BMP180;54434;50.096;20.082;2022-12-20T04:32:51;99652.00;;;-1.50
67822;BMP180;54434;50.096;20.082;2022-12-20T04:35:28;99654.80;;;-1.60
67822;BMP180;54434;50.096;20.082;2022-12-20T04:38:05;99660.60;;;-1.64
67822;BMP180;54434;50.096;20.082;2022-12-20T04:40:41;99646.20;;;-1.80
67822;BMP180;54434;50.096;20.082;2022-12-20T04:43:17;99654.40;;;-1.80
67822;BMP180;54434;50.096;20.082;2022-12-20T04:45:55;99658.00;;;-1.90
67822;BMP180;54434;50.096;20.082;2022-12-20T04:48:32;99651.60;;;-2.00
67822;BMP180;54434;50.096;20.082;2022-12-20T04:51:28;99653.20;;;-2.10
67822;BMP180;54434;50.096;20.082;2022-12-20T04:54:04;99650.40;;;-2.20
67822;BMP180;54434;50.096;20.082;2022-12-20T04:57:05;99653.60;;;-2.20
67822;BMP180;54434;50.096;20.082;2022-12-20T04:59:43;99655.80;;;-2.30
67822;BMP180;54434;50.096;20.082;2022-12-20T05:02:19;99654.40;;;-2.40
67822;BMP180;54434;50.096;20.082;2022-12-20T05:05:09;99662.40;;;-2.40
67822;BMP180;54434;50.096;20.082;2022-12-20T05:07:50;99657.80;;;-2.40
67822;BMP180;54434;50.096;20.082;2022-12-20T05:10:27;99654.80;;;-2.50
67822;BMP180;54434;50.096;20.082;2022-12-20T05:13:04;99650.80;;;-2.50
67822;BMP180;54434;50.096;20.082;2022-12-20T05:15:53;99645.80;;;-2.60
67822;BMP180;54434;50.096;20.082;2022-12-20T05:18:32;99638.00;;;-2.60
67822;BMP180;54434;50.096;20.082;2022-12-20T05:21:11;99629.40;;;-2.70
67822;BMP180;54434;50.096;20.082;2022-12-20T05:24:06;99627.40;;;-2.70
67822;BMP180;54434;50.096;20.082;2022-12-20T05:27:17;99631.80;;;-2.74
67822;BMP180;54434;50.096;20.082;2022-12-20T05:29:53;99634.40;;;-2.80
67822;BMP180;54434;50.096;20.082;2022-12-20T05:32:30;99637.60;;;-2.80
67822;BMP180;54434;50.096;20.082;2022-12-20T05:35:08;99641.60;;;-2.90
67822;BMP180;54434;50.096;20.082;2022-12-20T05:37:44;99641.00;;;-2.90
67822;BMP180;54434;50.096;20.082;2022-12-20T05:40:23;99643.60;;;-2.92
67822;BMP180;54434;50.096;20.082;2022-12-20T05:42:59;99639.40;;;-3.00
67822;BMP180;54434;50.096;20.082;2022-12-20T05:45:45;99642.00;;;-3.00
67822;BMP180;54434;50.096;20.082;2022-12-20T05:48:22;99642.60;;;-3.04
67822;BMP180;54434;50.096;20.082;2022-12-20T05:50:59;99645.40;;;-3.10
67822;BMP180;54434;50.096;20.082;2022-12-20T05:53:37;99639.20;;;-3.10
67822;BMP180;54434;50.096;20.082;2022-12-20T05:56:14;99638.60;;;-3.14
67822;BMP180;54434;50.096;20.082;2022-12-20T05:58:50;99641.00;;;-3.20
67822;BMP180;54434;50.096;20.082;2022-12-20T06:01:26;99646.40;;;-3.20
67822;BMP180;54434;50.096;20.082;2022-12-20T06:04:05;99642.20;;;-3.28
67822;BMP180;54434;50.096;20.082;2022-12-20T06:06:42;99639.60;;;-3.30
67822;BMP180;54434;50.096;20.082;2022-12-20T06:09:18;99637.60;;;-3.30
67822;BMP180;54434;50.096;20.082;2022-12-20T06:12:07;99643.80;;;-3.40
67822;BMP180;54434;50.096;20.082;2022-12-20T06:14:45;99650.80;;;-3.40
67822;BMP180;54434;50.096;20.082;2022-12-20T06:17:21;99643.40;;;-3.50
67822;BMP180;54434;50.096;20.082;2022-12-20T06:19:58;99640.60;;;-3.50
67822;BMP180;54434;50.096;20.082;2022-12-20T06:22:35;99633.60;;;-3.50
67822;BMP180;54434;50.096;20.082;2022-12-20T06:25:13;99637.60;;;-3.54
67822;BMP180;54434;50.096;20.082;2022-12-20T06:27:49;99641.80;;;-3.60
67822;BMP180;54434;50.096;20.082;2022-12-20T06:30:25;99641.40;;;-3.60
67822;BMP180;54434;50.096;20.082;2022-12-20T06:33:18;99636.60;;;-3.60
67822;BMP180;54434;50.096;20.082;2022-12-20T06:35:55;99638.00;;;-3.66
67822;BMP180;54434;50.096;20.082;2022-12-20T06:38:31;99639.00;;;-3.70
67822;BMP180;54434;50.096;20.082;2022-12-20T06:41:07;99634.20;;;-3.70
67822;BMP180;54434;50.096;20.082;2022-12-20T06:43:43;99640.40;;;-3.76
67822;BMP180;54434;50.096;20.082;2022-12-20T06:46:20;99640.60;;;-3.88
67822;BMP180;54434;50.096;20.082;2022-12-20T06:48:58;99641.40;;;-3.90
67822;BMP180;54434;50.096;20.082;2022-12-20T06:51:34;99639.40;;;-3.90
67822;BMP180;54434;50.096;20.082;2022-12-20T06:54:11;99646.60;;;-4.00
67822;BMP180;54434;50.096;20.082;2022-12-20T06:56:47;99640.60;;;-4.00
67822;BMP180;54434;50.096;20.082;2022-12-20T06:59:24;99642.40;;;-3.90
67822;BMP180;54434;50.096;20.082;2022-12-20T07:02:00;99643.40;;;-3.90
67822;BMP180;54434;50.096;20.082;2022-12-20T07:04:36;99635.60;;;-3.80
67822;BMP180;54434;50.096;20.082;2022-12-20T07:07:14;99641.40;;;-3.80
67822;BMP180;54434;50.096;20.082;2022-12-20T07:09:50;99641.20;;;-3.80
67822;BMP180;54434;50.096;20.082;2022-12-20T07:12:26;99635.40;;;-3.76
67822;BMP180;54434;50.096;20.082;2022-12-20T07:15:03;99629.80;;;-3.70
67822;BMP180;54434;50.096;20.082;2022-12-20T07:17:39;99633.60;;;-3.70
67822;BMP180;54434;50.096;20.082;2022-12-20T07:20:16;99635.40;;;-3.66
67822;BMP180;54434;50.096;20.082;2022-12-20T07:22:52;99627.40;;;-3.60
67822;BMP180;54434;50.096;20.082;2022-12-20T07:25:29;99626.80;;;-3.50
67822;BMP180;54434;50.096;20.082;2022-12-20T07:28:05;99624.80;;;-3.50
67822;BMP180;54434;50.096;20.082;2022-12-20T07:30:41;99633.80;;;-3.40
67822;BMP180;54434;50.096;20.082;2022-12-20T07:33:17;99639.80;;;-3.38
67822;BMP180;54434;50.096;20.082;2022-12-20T07:36:00;99638.20;;;-3.30
67822;BMP180;54434;50.096;20.082;2022-12-20T07:38:37;99641.80;;;-3.30
67822;BMP180;54434;50.096;20.082;2022-12-20T07:41:15;99629.00;;;-3.26
67822;BMP180;54434;50.096;20.082;2022-12-20T07:43:52;99636.40;;;-3.20
67822;BMP180;54434;50.096;20.082;2022-12-20T07:46:29;99641.00;;;-3.10
67822;BMP180;54434;50.096;20.082;2022-12-20T07:49:05;99638.00;;;-3.00
67822;BMP180;54434;50.096;20.082;2022-12-20T07:51:46;99635.40;;;-3.00
67822;BMP180;54434;50.096;20.082;2022-12-20T07:54:29;99638.20;;;-2.90
67822;BMP180;54434;50.096;20.082;2022-12-20T07:57:12;99633.00;;;-2.80
67822;BMP180;54434;50.096;20.082;2022-12-20T07:59:58;99633.20;;;-2.70
67822;BMP180;54434;50.096;20.082;2022-12-20T08:02:51;99633.60;;;-2.56
67822;BMP180;54434;50.096;20.082;2022-12-20T08:05:30;99630.40;;;-2.42
67822;BMP180;54434;50.096;20.082;2022-12-20T08:08:08;99625.20;;;-2.36
67822;BMP180;54434;50.096;20.082;2022-12-20T08:10:44;99622.40;;;-2.20
67822;BMP180;54434;50.096;20.082;2022-12-20T08:13:21;99631.80;;;-2.10
67822;BMP180;54434;50.096;20.082;2022-12-20T08:15:57;99619.80;;;-2.00
67822;BMP180;54434;50.096;20.082;2022-12-20T08:18:33;99621.40;;;-1.82
67822;BMP180;54434;50.096;20.082;2022-12-20T08:21:09;99625.80;;;-1.70
67822;BMP180;54434;50.096;20.082;2022-12-20T08:23:47;99627.80;;;-1.50
67822;BMP180;54434;50.096;20.082;2022-12-20T08:26:23;99627.40;;;-1.38
67822;BMP180;54434;50.096;20.082;2022-12-20T08:28:59;99635.20;;;-1.20
67822;BMP180;54434;50.096;20.082;2022-12-20T08:31:39;99626.20;;;-1.00
67822;BMP180;54434;50.096;20.082;2022-12-20T08:34:23;99625.80;;;-0.70
67822;BMP180;54434;50.096;20.082;2022-12-20T08:36:59;99622.40;;;-0.50
67822;BMP180;54434;50.096;20.082;2022-12-20T08:39:36;99621.00;;;-0.28
67822;BMP180;54434;50.096;20.082;2022-12-20T08:42:12;99625.20;;;-0.04
67822;BMP180;54434;50.096;20.082;2022-12-20T08:44:48;99618.40;;;0.20
67822;BMP180;54434;50.096;20.082;2022-12-20T08:47:23;99617.00;;;0.30
67822;BMP180;54434;50.096;20.082;2022-12-20T08:50:00;99608.40;;;0.48
67822;BMP180;54434;50.096;20.082;2022-12-20T08:52:36;99603.40;;;0.60
67822;BMP180;54434;50.096;20.082;2022-12-20T08:55:12;99596.40;;;0.80
67822;BMP180;54434;50.096;20.082;2022-12-20T08:57:48;99597.00;;;0.94
67822;BMP180;54434;50.096;20.082;2022-12-20T09:00:25;99608.20;;;1.10
67822;BMP180;54434;50.096;20.082;2022-12-20T09:03:01;99616.20;;;1.20
67822;BMP180;54434;50.096;20.082;2022-12-20T09:05:44;99609.80;;;1.30
67822;BMP180;54434;50.096;20.082;2022-12-20T09:08:20;99609.60;;;1.50
67822;BMP180;54434;50.096;20.082;2022-12-20T09:11:04;99606.60;;;1.60
67822;BMP180;54434;50.096;20.082;2022-12-20T09:13:41;99611.00;;;1.70
67822;BMP180;54434;50.096;20.082;2022-12-20T09:16:22;99611.20;;;1.80
67822;BMP180;54434;50.096;20.082;2022-12-20T09:19:01;99608.80;;;1.96
67822;BMP180;54434;50.096;20.082;2022-12-20T09:21:38;99597.40;;;2.10
67822;BMP180;54434;50.096;20.082;2022-12-20T09:24:15;99596.00;;;2.20
67822;BMP180;54434;50.096;20.082;2022-12-20T09:26:51;99607.60;;;2.30
67822;BMP180;54434;50.096;20.082;2022-12-20T09:29:27;99608.40;;;2.40
67822;BMP180;54434;50.096;20.082;2022-12-20T09:32:09;99597.20;;;2.50
67822;BMP180;54434;50.096;20.082;2022-12-20T09:34:47;99594.00;;;2.50
67822;BMP180;54434;50.096;20.082;2022-12-20T09:37:23;99586.40;;;2.60
67822;BMP180;54434;50.096;20.082;2022-12-20T09:40:01;99583.00;;;2.60
67822;BMP180;54434;50.096;20.082;2022-12-20T09:42:38;99589.20;;;2.70
67822;BMP180;54434;50.096;20.082;2022-12-20T09:45:24;99583.00;;;2.80
67822;BMP180;54434;50.096;20.082;2022-12-20T09:48:01;99576.40;;;2.90
67822;BMP180;54434;50.096;20.082;2022-12-20T09:50:57;99577.20;;;3.00
67822;BMP180;54434;50.096;20.082;2022-12-20T09:53:53;99572.80;;;3.20
67822;BMP180;54434;50.096;20.082;2022-12-20T09:56:35;99584.20;;;3.30
67822;BMP180;54434;50.096;20.082;2022-12-20T09:59:17;99582.00;;;3.40
67822;BMP180;54434;50.096;20.082;2022-12-20T10:01:54;99579.80;;;3.40
67822;BMP180;54434;50.096;20.082;2022-12-20T10:04:51;99578.60;;;3.60
67822;BMP180;54434;50.096;20.082;2022-12-20T10:07:44;99573.00;;;3.60
67822;BMP180;54434;50.096;20.082;2022-12-20T10:10:56;99565.60;;;3.70
67822;BMP180;54434;50.096;20.082;2022-12-20T10:13:56;99567.80;;;3.90
67822;BMP180;54434;50.096;20.082;2022-12-20T10:16:44;99574.40;;;4.00
67822;BMP180;54434;50.096;20.082;2022-12-20T10:20:14;99576.40;;;4.10
67822;BMP180;54434;50.096;20.082;2022-12-20T10:23:03;99582.40;;;4.20
67822;BMP180;54434;50.096;20.082;2022-12-20T10:25:42;99570.00;;;4.28
67822;BMP180;54434;50.096;20.082;2022-12-20T10:28:22;99553.60;;;4.30
67822;BMP180;54434;50.096;20.082;2022-12-20T10:31:06;99546.40;;;4.50
67822;BMP180;54434;50.096;20.082;2022-12-20T10:33:45;99548.40;;;4.64
67822;BMP180;54434;50.096;20.082;2022-12-20T10:36:29;99543.00;;;4.80
67822;BMP180;54434;50.096;20.082;2022-12-20T10:39:08;99531.60;;;5.00
67822;BMP180;54434;50.096;20.082;2022-12-20T10:41:52;99525.00;;;5.20
67822;BMP180;54434;50.096;20.082;2022-12-20T10:44:30;99517.40;;;5.30
67822;BMP180;54434;50.096;20.082;2022-12-20T10:47:33;99514.40;;;5.40
67822;BMP180;54434;50.096;20.082;2022-12-20T10:50:21;99502.40;;;5.44
67822;BMP180;54434;50.096;20.082;2022-12-20T10:53:28;99488.00;;;5.50
67822;BMP180;54434;50.096;20.082;2022-12-20T10:56:23;99484.40;;;5.60
67822;BMP180;54434;50.096;20.082;2022-12-20T10:59:25;99479.60;;;5.50
67822;BMP180;54434;50.096;20.082;2022-12-20T11:02:25;99475.40;;;5.60
67822;BMP180;54434;50.096;20.082;2022-12-20T11:05:26;99473.20;;;5.60
67822;BMP180;54434;50.096;20.082;2022-12-20T11:08:14;99472.20;;;5.70
67822;BMP180;54434;50.096;20.082;2022-12-20T11:11:21;99463.60;;;5.70
67822;BMP180;54434;50.096;20.082;2022-12-20T11:14:17;99461.00;;;5.70
67822;BMP180;54434;50.096;20.082;2022-12-20T11:16:58;99464.00;;;5.68
67822;BMP180;54434;50.096;20.082;2022-12-20T11:23:06;99466.80;;;5.42
67822;BMP180;54434;50.096;20.082;2022-12-20T11:26:11;99466.80;;;5.40
67822;BMP180;54434;50.096;20.082;2022-12-20T11:29:10;99471.40;;;5.30
67822;BMP180;54434;50.096;20.082;2022-12-20T11:32:07;99472.80;;;5.20
67822;BMP180;54434;50.096;20.082;2022-12-20T11:35:00;99470.20;;;5.10
67822;BMP180;54434;50.096;20.082;2022-12-20T11:37:51;99468.00;;;5.10
67822;BMP180;54434;50.096;20.082;2022-12-20T11:40:38;99475.40;;;5.04
67822;BMP180;54434;50.096;20.082;2022-12-20T11:43:46;99477.40;;;5.00
67822;BMP180;54434;50.096;20.082;2022-12-20T11:47:06;99476.40;;;4.94
67822;BMP180;54434;50.096;20.082;2022-12-20T11:50:15;99467.00;;;4.90
67822;BMP180;54434;50.096;20.082;2022-12-20T11:52:59;99460.00;;;4.82
67822;BMP180;54434;50.096;20.082;2022-12-20T11:55:40;99448.40;;;4.80
67822;BMP180;54434;50.096;20.082;2022-12-20T11:58:24;99445.60;;;4.70
67822;BMP180;54434;50.096;20.082;2022-12-20T12:01:10;99432.00;;;4.70
67822;BMP180;54434;50.096;20.082;2022-12-20T12:04:02;99426.80;;;4.60
67822;BMP180;54434;50.096;20.082;2022-12-20T12:06:47;99431.80;;;4.60
67822;BMP180;54434;50.096;20.082;2022-12-20T12:09:31;99428.60;;;4.60
67822;BMP180;54434;50.096;20.082;2022-12-20T12:12:21;99418.80;;;4.50
67822;BMP180;54434;50.096;20.082;2022-12-20T12:15:15;99418.60;;;4.50
67822;BMP180;54434;50.096;20.082;2022-12-20T12:18:04;99427.00;;;4.50
67822;BMP180;54434;50.096;20.082;2022-12-20T12:20:54;99426.60;;;4.40
67822;BMP180;54434;50.096;20.082;2022-12-20T12:23:46;99426.00;;;4.30
67822;BMP180;54434;50.096;20.082;2022-12-20T12:26:28;99425.80;;;4.26
67822;BMP180;54434;50.096;20.082;2022-12-20T12:29:13;99427.40;;;4.20
67822;BMP180;54434;50.096;20.082;2022-12-20T12:31:57;99421.60;;;4.20
67822;BMP180;54434;50.096;20.082;2022-12-20T12:35:10;99423.60;;;4.12
67822;BMP180;54434;50.096;20.082;2022-12-20T12:38:19;99418.00;;;4.10
67822;BMP180;54434;50.096;20.082;2022-12-20T12:41:37;99415.40;;;4.10
67822;BMP180;54434;50.096;20.082;2022-12-20T12:44:41;99400.60;;;4.00
67822;BMP180;54434;50.096;20.082;2022-12-20T12:47:32;99394.60;;;4.00
67822;BMP180;54434;50.096;20.082;2022-12-20T12:50:24;99396.40;;;4.00
67822;BMP180;54434;50.096;20.082;2022-12-20T12:53:10;99399.00;;;4.00
67822;BMP180;54434;50.096;20.082;2022-12-20T12:55:52;99399.80;;;4.00
67822;BMP180;54434;50.096;20.082;2022-12-20T12:59:41;99404.00;;;3.90
67822;BMP180;54434;50.096;20.082;2022-12-20T13:02:55;99403.00;;;3.90
67822;BMP180;54434;50.096;20.082;2022-12-20T13:05:38;99411.20;;;3.80
67822;BMP180;54434;50.096;20.082;2022-12-20T13:08:47;99415.40;;;3.72
67822;BMP180;54434;50.096;20.082;2022-12-20T13:11:35;99410.60;;;3.70
67822;BMP180;54434;50.096;20.082;2022-12-20T13:14:50;99417.00;;;3.64
67822;BMP180;54434;50.096;20.082;2022-12-20T13:17:51;99418.60;;;3.60
67822;BMP180;54434;50.096;20.082;2022-12-20T13:20:30;99415.80;;;3.60
67822;BMP180;54434;50.096;20.082;2022-12-20T13:23:16;99413.80;;;3.60
67822;BMP180;54434;50.096;20.082;2022-12-20T13:25:53;99419.60;;;3.58
67822;BMP180;54434;50.096;20.082;2022-12-20T13:28:50;99411.40;;;3.60
67822;BMP180;54434;50.096;20.082;2022-12-20T13:31:36;99415.80;;;3.56
67822;BMP180;54434;50.096;20.082;2022-12-20T13:34:54;99409.40;;;3.50
67822;BMP180;54434;50.096;20.082;2022-12-20T13:37:55;99415.80;;;3.50
67822;BMP180;54434;50.096;20.082;2022-12-20T13:40:39;99411.40;;;3.40
67822;BMP180;54434;50.096;20.082;2022-12-20T13:43:30;99405.80;;;3.40
67822;BMP180;54434;50.096;20.082;2022-12-20T13:46:23;99399.80;;;3.34
67822;BMP180;54434;50.096;20.082;2022-12-20T13:49:03;99396.60;;;3.30
67822;BMP180;54434;50.096;20.082;2022-12-20T13:51:41;99402.40;;;3.20
67822;BMP180;54434;50.096;20.082;2022-12-20T13:54:20;99403.40;;;3.20
67822;BMP180;54434;50.096;20.082;2022-12-20T13:57:01;99396.60;;;3.10
67822;BMP180;54434;50.096;20.082;2022-12-20T13:59:48;99399.20;;;3.02
67822;BMP180;54434;50.096;20.082;2022-12-20T14:02:32;99403.00;;;3.00
67822;BMP180;54434;50.096;20.082;2022-12-20T14:05:21;99398.60;;;2.92
67822;BMP180;54434;50.096;20.082;2022-12-20T14:08:06;99403.00;;;2.90
67822;BMP180;54434;50.096;20.082;2022-12-20T14:10:43;99412.60;;;2.82
67822;BMP180;54434;50.096;20.082;2022-12-20T14:13:26;99415.20;;;2.80
67822;BMP180;54434;50.096;20.082;2022-12-20T14:16:16;99416.40;;;2.70
67822;BMP180;54434;50.096;20.082;2022-12-20T14:19:03;99417.60;;;2.70
67822;BMP180;54434;50.096;20.082;2022-12-20T14:21:43;99412.80;;;2.60
67822;BMP180;54434;50.096;20.082;2022-12-20T14:24:23;99409.40;;;2.60
67822;BMP180;54434;50.096;20.082;2022-12-20T14:27:01;99402.20;;;2.52
67822;BMP180;54434;50.096;20.082;2022-12-20T14:29:38;99400.80;;;2.50
67822;BMP180;54434;50.096;20.082;2022-12-20T14:32:22;99402.00;;;2.50
67822;BMP180;54434;50.096;20.082;2022-12-20T14:34:59;99417.20;;;2.50
67822;BMP180;54434;50.096;20.082;2022-12-20T14:37:38;99419.00;;;2.40
67822;BMP180;54434;50.096;20.082;2022-12-20T14:40:23;99412.00;;;2.40
67822;BMP180;54434;50.096;20.082;2022-12-20T14:43:14;99408.40;;;2.30
67822;BMP180;54434;50.096;20.082;2022-12-20T14:46:07;99415.20;;;2.30
67822;BMP180;54434;50.096;20.082;2022-12-20T14:48:45;99420.00;;;2.26
67822;BMP180;54434;50.096;20.082;2022-12-20T14:51:24;99418.00;;;2.20
67822;BMP180;54434;50.096;20.082;2022-12-20T14:54:01;99421.40;;;2.10
67822;BMP180;54434;50.096;20.082;2022-12-20T14:56:43;99423.40;;;2.10
67822;BMP180;54434;50.096;20.082;2022-12-20T14:59:23;99424.80;;;2.10
67822;BMP180;54434;50.096;20.082;2022-12-20T15:02:33;99429.60;;;2.00
67822;BMP180;54434;50.096;20.082;2022-12-20T15:05:49;99428.00;;;1.90
67822;BMP180;54434;50.096;20.082;2022-12-20T15:08:29;99430.40;;;1.80
67822;BMP180;54434;50.096;20.082;2022-12-20T15:11:17;99432.40;;;1.70
67822;BMP180;54434;50.096;20.082;2022-12-20T15:13:58;99434.00;;;1.60
67822;BMP180;54434;50.096;20.082;2022-12-20T15:16:35;99427.60;;;1.60
67822;BMP180;54434;50.096;20.082;2022-12-20T15:19:21;99416.00;;;1.60
67822;BMP180;54434;50.096;20.082;2022-12-20T15:22:02;99416.60;;;1.50
67822;BMP180;54434;50.096;20.082;2022-12-20T15:24:39;99410.20;;;1.50
67822;BMP180;54434;50.096;20.082;2022-12-20T15:27:18;99413.20;;;1.46
67822;BMP180;54434;50.096;20.082;2022-12-20T15:29:55;99401.40;;;1.40
67822;BMP180;54434;50.096;20.082;2022-12-20T15:32:33;99396.60;;;1.40
67822;BMP180;54434;50.096;20.082;2022-12-20T15:35:15;99398.60;;;1.40
67822;BMP180;54434;50.096;20.082;2022-12-20T15:37:49;99399.40;;;1.32